Time;durP1;ratioP1;P1;durP2;ratioP2;P2;SDS_P1;SDS_P2;PMS_P1;PMS_P2;Temp;Humidity;BMP_temperature;BMP_pressure;BME280_temperature;BME280_humidity;BME280_pressure;Samples;Min_cycle;Max_cycle;Signal;HPM_P1;HPM_P2
2021/12/27 00:00:22;;;;;;;34.55;17.23;;;;;;;;;;2115171;28;20481;-48
2021/12/27 00:01:25;;;;;;;45.90;20.85;;;;;;;;;;2110277;28;20126;-48
2021/12/27 00:02:26;;;;;;;42.13;19.10;;;;;;;;;;2105102;28;20117;-48
2021/12/27 00:03:27;;;;;;;39.25;17.35;;;;;;;;;;2106545;28;20497;-47
2021/12/27 00:04:28;;;;;;;36.53;16.60;;;;;;;;;;2104578;28;20131;-47
2021/12/27 00:05:29;;;;;;;38.70;18.25;;;;;;;;;;2112941;28;20108;-47
2021/12/27 00:06:30;;;;;;;39.83;17.90;;;;;;;;;;2114607;28;20058;-47
2021/12/27 00:07:31;;;;;;;40.87;16.87;;;;;;;;;;2109245;28;20041;-50
2021/12/27 00:08:32;;;;;;;39.92;16.80;;;;;;;;;;2105687;28;20050;-44
2021/12/27 00:09:35;;;;;;;28.77;14.82;;;;;;;;;;2106856;28;20131;-49
2021/12/27 00:10:36;;;;;;;31.85;16.98;;;;;;;;;;2104458;28;20096;-47
2021/12/27 00:11:37;;;;;;;33.40;14.37;;;;;;;;;;2106384;28;20462;-44
2021/12/27 00:12:38;;;;;;;34.28;17.40;;;;;;;;;;2106595;28;20397;-45
2021/12/27 00:13:39;;;;;;;35.28;17.75;;;;;;;;;;2103057;28;20051;-44
2021/12/27 00:14:40;;;;;;;37.28;17.30;;;;;;;;;;2106332;28;20140;-44
2021/12/27 00:15:42;;;;;;;38.70;18.48;;;;;;;;;;2106610;28;20096;-45
2021/12/27 00:16:43;;;;;;;37.97;17.80;;;;;;;;;;2107089;28;20035;-44
2021/12/27 00:17:46;;;;;;;35.65;18.50;;;;;;;;;;2098252;28;20094;-45
2021/12/27 00:18:47;;;;;;;39.90;17.95;;;;;;;;;;2098131;28;20127;-44
2021/12/27 00:19:48;;;;;;;32.43;16.10;;;;;;;;;;2103969;28;20052;-44
2021/12/27 00:20:49;;;;;;;38.70;18.75;;;;;;;;;;2106596;28;20127;-45
2021/12/27 00:21:50;;;;;;;35.40;18.77;;;;;;;;;;2105954;28;20095;-44
2021/12/27 00:22:51;;;;;;;36.90;18.33;;;;;;;;;;2105961;28;20123;-44
2021/12/27 00:23:52;;;;;;;42.72;20.08;;;;;;;;;;2097985;28;20509;-45
2021/12/27 00:24:53;;;;;;;38.20;17.67;;;;;;;;;;2098946;28;20055;-47
2021/12/27 00:25:54;;;;;;;38.93;20.00;;;;;;;;;;2104425;28;20050;-49
2021/12/27 00:26:55;;;;;;;38.97;19.05;;;;;;;;;;2106469;28;20047;-48
2021/12/27 00:27:56;;;;;;;37.65;18.17;;;;;;;;;;2105182;28;20044;-48
2021/12/27 00:28:57;;;;;;;40.75;19.23;;;;;;;;;;2109630;28;20134;-48
2021/12/27 00:29:58;;;;;;;28.55;14.85;;;;;;;;;;2114759;28;20064;-47
2021/12/27 00:30:59;;;;;;;38.95;17.98;;;;;;;;;;2110582;28;20048;-44
2021/12/27 00:32:01;;;;;;;34.20;18.70;;;;;;;;;;2106434;28;20126;-44
2021/12/27 00:33:02;;;;;;;42.22;17.00;;;;;;;;;;2106505;28;20477;-45
2021/12/27 00:34:03;;;;;;;44.70;21.13;;;;;;;;;;2105292;28;20044;-45
2021/12/27 00:35:04;;;;;;;40.55;19.77;;;;;;;;;;2104920;28;20044;-44
2021/12/27 00:36:05;;;;;;;41.17;18.73;;;;;;;;;;2106601;28;20140;-48
2021/12/27 00:37:07;;;;;;;36.13;17.08;;;;;;;;;;2105411;28;20135;-48
2021/12/27 00:38:08;;;;;;;;;;;;;;;;;;2105608;28;20492;-48
2021/12/27 00:39:09;;;;;;;29.08;13.75;;;;;;;;;;2106328;28;19920;-48
2021/12/27 00:40:11;;;;;;;30.85;16.52;;;;;;;;;;2105103;28;20083;-48
2021/12/27 00:41:12;;;;;;;36.10;18.50;;;;;;;;;;2105426;28;20253;-44
2021/12/27 00:42:13;;;;;;;41.58;18.65;;;;;;;;;;2106388;28;20129;-44
2021/12/27 00:43:16;;;;;;;39.40;19.08;;;;;;;;;;2107171;28;20462;-46
2021/12/27 00:44:17;;;;;;;36.13;18.02;;;;;;;;;;2105630;28;20044;-44
2021/12/27 00:45:20;;;;;;;;;;;;;;;;;;2106915;28;20055;-44
2021/12/27 00:46:22;;;;;;;42.15;17.85;;;;;;;;;;2104833;28;20380;-45
2021/12/27 00:47:23;;;;;;;44.80;19.40;;;;;;;;;;2102238;28;20119;-44
2021/12/27 00:48:25;;;;;;;41.03;20.73;;;;;;;;;;2106309;28;20048;-45
2021/12/27 00:49:26;;;;;;;50.30;23.65;;;;;;;;;;2106471;28;20054;-45
2021/12/27 00:50:27;;;;;;;46.97;21.95;;;;;;;;;;2097868;28;20078;-44
2021/12/27 00:51:28;;;;;;;48.05;22.75;;;;;;;;;;2097475;28;20048;-44
2021/12/27 00:52:30;;;;;;;36.88;16.92;;;;;;;;;;2107138;28;20495;-44
2021/12/27 00:53:31;;;;;;;40.78;18.52;;;;;;;;;;2114647;28;20507;-45
2021/12/27 00:54:32;;;;;;;40.67;20.30;;;;;;;;;;2113378;28;20104;-44
2021/12/27 00:55:33;;;;;;;53.50;23.25;;;;;;;;;;2104400;28;20098;-44
2021/12/27 00:56:34;;;;;;;48.58;21.35;;;;;;;;;;2106264;28;20048;-44
2021/12/27 00:57:35;;;;;;;46.87;21.30;;;;;;;;;;2105457;28;20066;-44
2021/12/27 00:58:36;;;;;;;46.78;22.48;;;;;;;;;;2105083;28;20097;-44
2021/12/27 00:59:37;;;;;;;42.10;20.13;;;;;;;;;;2097977;28;20121;-44
2021/12/27 01:00:38;;;;;;;47.60;22.48;;;;;;;;;;2098692;28;20048;-44
2021/12/27 01:01:40;;;;;;;49.72;21.52;;;;;;;;;;2108712;28;20043;-44
2021/12/27 01:02:42;;;;;;;48.20;21.73;;;;;;;;;;2114901;28;20136;-45
2021/12/27 01:03:43;;;;;;;47.10;22.20;;;;;;;;;;2110061;28;20044;-45
2021/12/27 01:04:44;;;;;;;54.10;22.63;;;;;;;;;;2104787;28;20492;-44
2021/12/27 01:05:45;;;;;;;49.42;21.10;;;;;;;;;;2106271;28;20048;-44
2021/12/27 01:06:46;;;;;;;40.90;18.02;;;;;;;;;;2104314;28;20531;-44
2021/12/27 01:07:47;;;;;;;45.33;20.77;;;;;;;;;;2107558;28;20040;-44
2021/12/27 01:08:48;;;;;;;39.42;18.88;;;;;;;;;;2106158;28;20052;-44
2021/12/27 01:10:03;;;;;;;48.03;21.02;;;;;;;;;;2104304;28;20044;-44
2021/12/27 01:11:24;;;;;;;35.80;18.33;;;;;;;;;;2097697;28;20047;-45
2021/12/27 01:12:32;;;;;;;42.35;17.17;;;;;;;;;;2100658;28;20086;-44
2021/12/27 01:13:40;;;;;;;39.88;18.52;;;;;;;;;;2105099;28;20100;-44
2021/12/27 01:14:44;;;;;;;43.58;19.13;;;;;;;;;;2106217;28;20050;-44
2021/12/27 01:15:50;;;;;;;42.70;20.30;;;;;;;;;;2103549;28;20066;-44
2021/12/27 01:16:52;;;;;;;28.95;14.75;;;;;;;;;;2106022;28;20501;-44
2021/12/27 01:17:54;;;;;;;39.25;18.98;;;;;;;;;;2105325;28;20072;-44
2021/12/27 01:18:55;;;;;;;41.53;20.15;;;;;;;;;;2104506;28;20131;-44
2021/12/27 01:19:56;;;;;;;37.63;16.45;;;;;;;;;;2097737;28;20127;-44
2021/12/27 01:20:57;;;;;;;30.60;15.00;;;;;;;;;;2098075;28;20052;-45
2021/12/27 01:21:58;;;;;;;31.75;15.45;;;;;;;;;;2105080;28;20050;-45
2021/12/27 01:22:59;;;;;;;46.17;18.38;;;;;;;;;;2097839;28;20128;-44
2021/12/27 01:24:01;;;;;;;34.05;17.75;;;;;;;;;;2098522;28;20048;-44
2021/12/27 01:25:02;;;;;;;39.50;18.83;;;;;;;;;;2104665;28;20104;-44
2021/12/27 01:26:03;;;;;;;29.05;14.50;;;;;;;;;;2106043;28;20453;-45
2021/12/27 01:27:04;;;;;;;35.63;16.58;;;;;;;;;;2104452;28;20046;-44
2021/12/27 01:28:06;;;;;;;38.35;17.60;;;;;;;;;;2105404;28;20143;-44
2021/12/27 01:29:08;;;;;;;36.40;18.77;;;;;;;;;;2105986;28;20285;-44
2021/12/27 01:30:08;;;;;;;;;;;;;;;;;;2105161;28;20048;-45
2021/12/27 01:31:10;;;;;;;34.78;15.38;;;;;;;;;;2103302;28;20336;-44
2021/12/27 01:32:11;;;;;;;29.13;13.05;;;;;;;;;;2096339;28;20094;-44
2021/12/27 01:33:13;;;;;;;33.73;16.27;;;;;;;;;;2100346;28;20044;-45
2021/12/27 01:34:14;;;;;;;36.72;17.60;;;;;;;;;;2099525;28;20135;-45
2021/12/27 01:35:16;;;;;;;37.38;16.88;;;;;;;;;;2097565;28;20458;-44
2021/12/27 01:36:18;;;;;;;35.17;16.63;;;;;;;;;;2100419;28;20481;-44
2021/12/27 01:37:19;;;;;;;29.83;14.80;;;;;;;;;;2099171;28;20420;-44
2021/12/27 01:38:20;;;;;;;37.60;15.50;;;;;;;;;;2097598;28;20045;-44
2021/12/27 01:39:21;;;;;;;37.53;17.30;;;;;;;;;;2104240;28;20150;-45
2021/12/27 01:40:23;;;;;;;34.47;15.23;;;;;;;;;;2105865;28;20087;-44
2021/12/27 01:41:24;;;;;;;34.58;17.75;;;;;;;;;;2105857;28;20056;-45
2021/12/27 01:42:25;;;;;;;38.13;16.08;;;;;;;;;;2103506;28;20044;-44
2021/12/27 01:43:27;;;;;;;37.90;17.73;;;;;;;;;;2105659;28;20079;-44
2021/12/27 01:44:28;;;;;;;28.23;13.88;;;;;;;;;;2105952;28;20127;-45
2021/12/27 01:45:29;;;;;;;33.40;16.00;;;;;;;;;;2104921;28;20319;-44
2021/12/27 01:46:31;;;;;;;31.65;13.63;;;;;;;;;;2114320;28;20075;-44
2021/12/27 01:47:32;;;;;;;31.52;17.08;;;;;;;;;;2114311;28;20442;-45
2021/12/27 01:48:37;;;;;;;29.00;13.52;;;;;;;;;;2106077;28;20048;-44
2021/12/27 01:49:38;;;;;;;30.05;15.35;;;;;;;;;;2114331;28;20170;-44
2021/12/27 01:50:40;;;;;;;30.37;14.40;;;;;;;;;;2112901;28;20055;-45
2021/12/27 01:51:41;;;;;;;29.38;14.88;;;;;;;;;;2107673;28;20039;-44
2021/12/27 01:52:42;;;;;;;33.97;17.30;;;;;;;;;;2114460;28;20051;-44
2021/12/27 01:53:44;;;;;;;30.45;15.60;;;;;;;;;;2111241;28;20130;-46
2021/12/27 01:54:45;;;;;;;;;;;;;;;;;;2104313;28;20044;-44
2021/12/27 01:55:46;;;;;;;29.55;13.75;;;;;;;;;;2105833;28;19935;-44
2021/12/27 01:56:49;;;;;;;26.00;12.68;;;;;;;;;;2103810;28;20190;-44
2021/12/27 01:57:55;;;;;;;32.63;16.63;;;;;;;;;;2111000;28;20193;-44
2021/12/27 01:58:57;;;;;;;27.25;13.52;;;;;;;;;;2114623;28;20197;-47
2021/12/27 01:59:58;;;;;;;30.33;16.13;;;;;;;;;;2109678;28;20123;-48
2021/12/27 02:01:16;;;;;;;36.00;16.48;;;;;;;;;;2097414;28;20063;-47
2021/12/27 02:02:17;;;;;;;35.47;16.13;;;;;;;;;;2097487;28;20048;-48
2021/12/27 02:03:20;;;;;;;34.95;15.45;;;;;;;;;;2102837;28;20044;-44
2021/12/27 02:04:21;;;;;;;37.60;16.63;;;;;;;;;;2105977;28;20130;-44
2021/12/27 02:05:22;;;;;;;33.60;17.08;;;;;;;;;;2105200;28;20469;-44
2021/12/27 02:06:25;;;;;;;36.60;17.65;;;;;;;;;;2106516;28;20052;-45
2021/12/27 02:07:26;;;;;;;35.28;17.48;;;;;;;;;;2114248;28;20504;-44
2021/12/27 02:08:27;;;;;;;35.23;17.43;;;;;;;;;;2112723;28;20054;-44
2021/12/27 02:09:38;;;;;;;29.13;14.38;;;;;;;;;;2107468;28;20137;-44
2021/12/27 02:10:40;;;;;;;32.78;16.77;;;;;;;;;;2114385;28;20040;-44
2021/12/27 02:11:41;;;;;;;34.58;15.57;;;;;;;;;;2108854;28;20119;-44
2021/12/27 02:12:44;;;;;;;27.05;13.70;;;;;;;;;;2111373;28;20393;-44
2021/12/27 02:13:46;;;;;;;31.27;15.52;;;;;;;;;;2114255;28;20130;-44
2021/12/27 02:14:47;;;;;;;34.28;17.10;;;;;;;;;;2109098;28;20131;-48
2021/12/27 02:15:48;;;;;;;32.07;15.70;;;;;;;;;;2104359;28;20052;-48
2021/12/27 02:16:49;;;;;;;28.60;15.32;;;;;;;;;;2105765;28;20044;-48
2021/12/27 02:17:50;;;;;;;25.67;14.38;;;;;;;;;;2104327;28;20504;-48
2021/12/27 02:18:51;;;;;;;22.63;12.00;;;;;;;;;;2104773;28;20047;-48
2021/12/27 02:19:53;;;;;;;32.45;15.02;;;;;;;;;;2106103;28;20093;-48
2021/12/27 02:20:54;;;;;;;22.88;13.77;;;;;;;;;;2106714;28;20640;-47
2021/12/27 02:21:56;;;;;;;33.55;15.70;;;;;;;;;;2104550;28;20481;-47
2021/12/27 02:23:01;;;;;;;30.63;16.38;;;;;;;;;;2105944;28;20127;-48
2021/12/27 02:24:03;;;;;;;30.83;15.73;;;;;;;;;;2104718;28;20048;-48
2021/12/27 02:25:05;;;;;;;25.90;14.38;;;;;;;;;;2114053;28;20563;-48
2021/12/27 02:26:06;;;;;;;;;;;;;;;;;;2114590;28;20139;-47
2021/12/27 02:27:07;;;;;;;30.25;13.85;;;;;;;;;;2104339;28;20356;-47
2021/12/27 02:28:09;;;;;;;33.10;15.18;;;;;;;;;;2097487;28;20040;-47
2021/12/27 02:29:10;;;;;;;28.40;15.00;;;;;;;;;;2098376;28;20318;-48
2021/12/27 02:30:12;;;;;;;27.30;14.70;;;;;;;;;;2107782;28;20040;-48
2021/12/27 02:31:14;;;;;;;25.83;13.65;;;;;;;;;;2100079;28;20177;-48
2021/12/27 02:32:15;;;;;;;;;;;;;;;;;;2102246;28;20412;-48
2021/12/27 02:33:16;;;;;;;23.17;12.15;;;;;;;;;;2103882;28;19927;-47
2021/12/27 02:34:17;;;;;;;27.65;13.65;;;;;;;;;;2100005;28;20497;-49
2021/12/27 02:35:20;;;;;;;25.45;13.13;;;;;;;;;;2100977;28;20129;-48
2021/12/27 02:36:24;;;;;;;23.35;14.35;;;;;;;;;;2102957;28;20561;-47
2021/12/27 02:37:25;;;;;;;25.35;13.70;;;;;;;;;;2100307;28;20058;-48
2021/12/27 02:38:27;;;;;;;26.53;13.97;;;;;;;;;;2102845;28;20397;-47
2021/12/27 02:39:29;;;;;;;24.55;12.70;;;;;;;;;;2106699;28;20494;-48
2021/12/27 02:40:35;;;;;;;22.65;12.60;;;;;;;;;;2108526;28;20078;-47
2021/12/27 02:41:36;;;;;;;25.48;14.13;;;;;;;;;;2107351;28;20567;-45
2021/12/27 02:42:51;;;;;;;29.87;14.27;;;;;;;;;;2108574;28;20142;-44
2021/12/27 02:43:52;;;;;;;27.50;13.75;;;;;;;;;;2108835;28;20047;-44
2021/12/27 02:44:53;;;;;;;26.07;14.67;;;;;;;;;;2108338;28;20040;-44
2021/12/27 02:45:55;;;;;;;26.27;14.30;;;;;;;;;;2099959;28;20473;-44
2021/12/27 02:46:56;;;;;;;29.33;14.35;;;;;;;;;;2099974;28;20712;-44
2021/12/27 02:47:58;;;;;;;29.15;14.60;;;;;;;;;;2106677;28;20143;-47
2021/12/27 02:48:59;;;;;;;25.65;14.10;;;;;;;;;;2108442;28;20485;-48
2021/12/27 02:50:00;;;;;;;26.67;14.35;;;;;;;;;;2107877;28;20043;-48
2021/12/27 02:51:02;;;;;;;24.92;13.73;;;;;;;;;;2109097;28;20039;-47
2021/12/27 02:52:03;;;;;;;27.33;15.05;;;;;;;;;;2116763;28;20108;-48
2021/12/27 02:53:05;;;;;;;30.08;16.30;;;;;;;;;;2113666;28;20127;-48
2021/12/27 02:54:06;;;;;;;30.67;16.42;;;;;;;;;;2112053;28;20043;-48
2021/12/27 02:55:07;;;;;;;35.58;17.35;;;;;;;;;;2116792;28;20138;-49
2021/12/27 02:56:09;;;;;;;22.73;13.10;;;;;;;;;;2112301;28;20131;-47
2021/12/27 02:57:10;;;;;;;32.97;16.10;;;;;;;;;;2107268;28;20126;-47
2021/12/27 02:58:11;;;;;;;30.70;15.98;;;;;;;;;;2108435;28;20692;-48
2021/12/27 02:59:20;;;;;;;33.95;16.33;;;;;;;;;;2107142;28;20053;-48
2021/12/27 03:00:23;;;;;;;31.60;16.95;;;;;;;;;;2107242;28;20131;-48
2021/12/27 03:01:24;;;;;;;34.85;15.85;;;;;;;;;;2108215;28;20139;-48
2021/12/27 03:02:25;;;;;;;31.13;16.02;;;;;;;;;;2106198;28;20044;-48
2021/12/27 03:03:27;;;;;;;31.53;15.67;;;;;;;;;;2107151;28;20039;-48
2021/12/27 03:04:33;;;;;;;26.17;14.60;;;;;;;;;;2108469;28;20052;-48
2021/12/27 03:05:34;;;;;;;31.98;15.57;;;;;;;;;;2109281;28;20125;-48
2021/12/27 03:06:36;;;;;;;28.83;15.93;;;;;;;;;;2108204;28;20412;-48
2021/12/27 03:07:37;;;;;;;33.75;16.58;;;;;;;;;;2108459;28;20056;-48
2021/12/27 03:08:39;;;;;;;38.78;17.65;;;;;;;;;;2108200;28;20130;-48
2021/12/27 03:09:40;;;;;;;31.70;16.02;;;;;;;;;;2099948;28;20481;-47
2021/12/27 03:10:42;;;;;;;30.42;16.02;;;;;;;;;;2099741;28;20068;-47
2021/12/27 03:11:43;;;;;;;;;;;;;;;;;;2106892;28;20128;-47
2021/12/27 03:12:45;;;;;;;31.52;15.85;;;;;;;;;;2108359;28;19920;-48
2021/12/27 03:13:47;;;;;;;30.45;14.07;;;;;;;;;;2107569;28;20507;-48
2021/12/27 03:14:48;;;;;;;30.90;16.58;;;;;;;;;;2106738;28;20044;-47
2021/12/27 03:15:50;;;;;;;30.60;16.13;;;;;;;;;;2108737;28;20048;-45
2021/12/27 03:16:51;;;;;;;;;;;;;;;;;;2107006;28;20130;-45
2021/12/27 03:17:53;;;;;;;24.90;13.98;;;;;;;;;;2107987;28;20347;-44
2021/12/27 03:18:54;;;;;;;32.40;16.25;;;;;;;;;;2108365;28;20074;-45
2021/12/27 03:19:55;;;;;;;27.67;15.47;;;;;;;;;;2107005;28;20400;-44
2021/12/27 03:20:56;;;;;;;28.55;16.95;;;;;;;;;;2109622;28;20130;-44
2021/12/27 03:21:58;;;;;;;37.57;17.60;;;;;;;;;;2108264;28;20059;-44
2021/12/27 03:22:59;;;;;;;35.88;18.20;;;;;;;;;;2107125;28;20492;-44
2021/12/27 03:24:00;;;;;;;32.35;17.45;;;;;;;;;;2106654;28;20048;-46
2021/12/27 03:25:01;;;;;;;35.45;17.48;;;;;;;;;;2108213;28;20385;-44
2021/12/27 03:26:03;;;;;;;31.27;17.35;;;;;;;;;;2106921;28;20071;-44
2021/12/27 03:27:04;;;;;;;37.65;19.35;;;;;;;;;;2107166;28;20047;-44
2021/12/27 03:28:05;;;;;;;35.03;19.35;;;;;;;;;;2108184;28;20443;-45
2021/12/27 03:29:06;;;;;;;30.48;17.30;;;;;;;;;;2108892;28;20047;-45
2021/12/27 03:30:09;;;;;;;36.35;18.10;;;;;;;;;;2101007;28;20182;-44
2021/12/27 03:31:11;;;;;;;38.95;20.42;;;;;;;;;;2099862;28;20041;-44
2021/12/27 03:32:12;;;;;;;35.92;21.13;;;;;;;;;;2101177;28;20047;-44
2021/12/27 03:33:13;;;;;;;41.13;20.77;;;;;;;;;;2108006;28;20035;-45
2021/12/27 03:34:14;;;;;;;41.90;21.55;;;;;;;;;;2108238;28;20158;-45
2021/12/27 03:35:24;;;;;;;43.38;21.45;;;;;;;;;;2105751;28;20192;-44
2021/12/27 03:36:28;;;;;;;40.88;21.10;;;;;;;;;;2107909;28;20052;-45
2021/12/27 03:37:30;;;;;;;42.50;21.45;;;;;;;;;;2107601;28;20131;-44
2021/12/27 03:38:33;;;;;;;40.10;20.35;;;;;;;;;;2106956;28;20154;-45
2021/12/27 03:39:34;;;;;;;42.15;21.83;;;;;;;;;;2099686;28;20051;-45
2021/12/27 03:40:36;;;;;;;41.00;21.43;;;;;;;;;;2100049;28;20053;-44
2021/12/27 03:41:37;;;;;;;41.50;22.65;;;;;;;;;;2108788;28;20040;-45
2021/12/27 03:42:38;;;;;;;33.40;18.85;;;;;;;;;;2115247;28;20082;-45
2021/12/27 03:43:39;;;;;;;27.20;15.48;;;;;;;;;;2110560;28;20525;-45
2021/12/27 03:44:40;;;;;;;28.45;15.40;;;;;;;;;;2105468;28;20557;-44
2021/12/27 03:45:41;;;;;;;35.10;18.33;;;;;;;;;;2106835;28;20079;-44
2021/12/27 03:46:42;;;;;;;39.95;21.17;;;;;;;;;;2105634;28;20285;-45
2021/12/27 03:47:43;;;;;;;36.72;19.35;;;;;;;;;;2105262;28;20408;-44
2021/12/27 03:48:44;;;;;;;41.42;20.67;;;;;;;;;;2106744;28;20056;-44
2021/12/27 03:49:45;;;;;;;42.28;20.52;;;;;;;;;;2106724;28;20456;-44
2021/12/27 03:50:47;;;;;;;43.13;21.33;;;;;;;;;;2101456;28;20190;-45
2021/12/27 03:51:47;;;;;;;41.28;21.63;;;;;;;;;;2098399;28;20388;-44
2021/12/27 03:52:49;;;;;;;37.87;20.87;;;;;;;;;;2102316;28;20052;-48
2021/12/27 03:53:52;;;;;;;45.83;23.83;;;;;;;;;;2106396;28;20162;-48
2021/12/27 03:54:53;;;;;;;45.38;23.48;;;;;;;;;;2106749;28;20047;-47
2021/12/27 03:55:54;;;;;;;40.08;21.73;;;;;;;;;;2105014;28;21383;-47
2021/12/27 03:56:55;;;;;;;46.47;22.70;;;;;;;;;;2114892;28;20047;-48
2021/12/27 03:58:06;;;;;;;43.55;23.00;;;;;;;;;;2115106;28;20116;-49
2021/12/27 03:59:21;;;;;;;43.50;23.77;;;;;;;;;;2106327;28;20379;-47
2021/12/27 04:00:32;;;;;;;42.97;24.08;;;;;;;;;;2115249;28;20078;-48
2021/12/27 04:01:33;;;;;;;42.58;23.25;;;;;;;;;;2108336;28;20405;-48
2021/12/27 04:02:37;;;;;;;48.42;24.25;;;;;;;;;;2105926;28;20086;-48
2021/12/27 04:03:38;;;;;;;43.50;24.48;;;;;;;;;;2106942;28;20056;-45
2021/12/27 04:04:39;;;;;;;52.65;24.60;;;;;;;;;;2106854;28;20405;-45
2021/12/27 04:05:40;;;;;;;46.70;23.10;;;;;;;;;;2100363;28;20378;-44
2021/12/27 04:06:42;;;;;;;46.90;24.25;;;;;;;;;;2098272;28;20135;-44
2021/12/27 04:07:43;;;;;;;46.40;24.15;;;;;;;;;;2101877;28;20483;-45
2021/12/27 04:08:45;;;;;;;50.25;25.67;;;;;;;;;;2106571;28;20093;-44
2021/12/27 04:09:46;;;;;;;45.70;24.95;;;;;;;;;;2106720;28;20133;-45
2021/12/27 04:10:47;;;;;;;50.53;25.30;;;;;;;;;;2105307;28;20044;-45
2021/12/27 04:11:48;;;;;;;47.83;24.73;;;;;;;;;;2106465;28;20079;-45
2021/12/27 04:12:49;;;;;;;49.50;23.52;;;;;;;;;;2106651;28;20135;-45
2021/12/27 04:13:50;;;;;;;42.00;22.30;;;;;;;;;;2106815;28;20048;-45
2021/12/27 04:14:52;;;;;;;46.75;24.00;;;;;;;;;;2098169;28;20087;-44
2021/12/27 04:15:54;;;;;;;45.28;24.77;;;;;;;;;;2098214;28;20067;-44
2021/12/27 04:16:55;;;;;;;47.35;24.38;;;;;;;;;;2106063;28;20044;-44
2021/12/27 04:17:56;;;;;;;46.78;25.33;;;;;;;;;;2114961;28;20092;-45
2021/12/27 04:18:57;;;;;;;47.60;23.67;;;;;;;;;;2113770;28;20066;-44
2021/12/27 04:19:58;;;;;;;44.92;24.52;;;;;;;;;;2104518;28;20048;-45
2021/12/27 04:20:59;;;;;;;50.08;24.40;;;;;;;;;;2106570;28;20127;-44
2021/12/27 04:22:00;;;;;;;40.45;19.90;;;;;;;;;;2105612;28;20511;-44
2021/12/27 04:23:01;;;;;;;34.38;19.52;;;;;;;;;;2105211;28;20552;-44
2021/12/27 04:24:03;;;;;;;37.17;20.70;;;;;;;;;;2098149;28;20131;-45
2021/12/27 04:25:04;;;;;;;36.60;19.60;;;;;;;;;;2098998;28;20047;-45
2021/12/27 04:26:05;;;;;;;40.70;23.50;;;;;;;;;;2105704;28;20499;-44
2021/12/27 04:27:06;;;;;;;39.30;21.33;;;;;;;;;;2106683;28;20104;-49
2021/12/27 04:28:08;;;;;;;40.13;20.17;;;;;;;;;;2104992;28;20466;-47
2021/12/27 04:29:09;;;;;;;46.90;24.73;;;;;;;;;;2099995;28;20170;-47
2021/12/27 04:30:10;;;;;;;37.73;20.80;;;;;;;;;;2098310;28;20044;-48
2021/12/27 04:31:11;;;;;;;43.90;23.27;;;;;;;;;;2101604;28;20450;-48
2021/12/27 04:32:13;;;;;;;49.78;25.27;;;;;;;;;;2104118;28;20397;-48
2021/12/27 04:33:14;;;;;;;47.85;23.92;;;;;;;;;;2106669;28;20128;-47
2021/12/27 04:34:15;;;;;;;55.40;25.67;;;;;;;;;;2103879;28;20446;-47
2021/12/27 04:35:17;;;;;;;52.05;26.85;;;;;;;;;;2106588;28;20489;-44
2021/12/27 04:36:18;;;;;;;47.35;25.08;;;;;;;;;;2106362;28;20412;-44
2021/12/27 04:37:19;;;;;;;50.67;25.50;;;;;;;;;;2106670;28;20047;-44
2021/12/27 04:38:20;;;;;;;52.13;25.85;;;;;;;;;;2098055;28;20417;-44
2021/12/27 04:39:21;;;;;;;47.78;23.30;;;;;;;;;;2098007;28;20144;-44
2021/12/27 04:40:24;;;;;;;51.88;25.52;;;;;;;;;;2106344;28;20051;-44
2021/12/27 04:41:25;;;;;;;53.40;27.13;;;;;;;;;;2106249;28;20562;-45
2021/12/27 04:42:27;;;;;;;66.97;30.43;;;;;;;;;;2105739;28;20052;-44
2021/12/27 04:43:28;;;;;;;55.35;28.40;;;;;;;;;;2108099;28;20416;-45
2021/12/27 04:44:29;;;;;;;55.63;26.42;;;;;;;;;;2114809;28;20130;-47
2021/12/27 04:45:30;;;;;;;59.80;26.38;;;;;;;;;;2112297;28;20051;-46
2021/12/27 04:46:31;;;;;;;59.05;28.75;;;;;;;;;;2104990;28;20131;-45
2021/12/27 04:47:32;;;;;;;56.10;27.80;;;;;;;;;;2098178;28;20045;-44
2021/12/27 04:48:34;;;;;;;39.97;20.27;;;;;;;;;;2098840;28;20049;-45
2021/12/27 04:49:35;;;;;;;52.05;24.63;;;;;;;;;;2109979;28;20134;-45
2021/12/27 04:50:36;;;;;;;47.90;24.15;;;;;;;;;;2114845;28;20062;-44
2021/12/27 04:51:37;;;;;;;56.50;26.27;;;;;;;;;;2110002;28;20044;-45
2021/12/27 04:52:39;;;;;;;50.72;26.30;;;;;;;;;;2104273;28;20044;-45
2021/12/27 04:53:39;;;;;;;52.13;25.90;;;;;;;;;;2105927;28;20048;-44
2021/12/27 04:54:41;;;;;;;46.72;25.58;;;;;;;;;;2105568;28;20066;-45
2021/12/27 04:55:44;;;;;;;35.70;20.35;;;;;;;;;;2105254;28;20040;-48
2021/12/27 04:56:46;;;;;;;37.60;20.40;;;;;;;;;;2106281;28;20175;-48
2021/12/27 04:57:47;;;;;;;48.50;24.00;;;;;;;;;;2105247;28;20044;-48
2021/12/27 04:58:49;;;;;;;48.38;23.52;;;;;;;;;;2106103;28;20055;-48
2021/12/27 04:59:50;;;;;;;44.88;22.23;;;;;;;;;;2106257;28;20048;-47
2021/12/27 05:00:52;;;;;;;47.57;24.53;;;;;;;;;;2103806;28;20036;-47
2021/12/27 05:01:54;;;;;;;49.25;27.05;;;;;;;;;;2106053;28;20079;-48
2021/12/27 05:02:55;;;;;;;42.73;21.90;;;;;;;;;;2106142;28;20044;-47
2021/12/27 05:03:56;;;;;;;49.75;24.95;;;;;;;;;;2107194;28;20623;-49
2021/12/27 05:04:57;;;;;;;52.77;25.13;;;;;;;;;;2097898;28;20094;-47
2021/12/27 05:05:58;;;;;;;45.50;24.08;;;;;;;;;;2097977;28;20136;-48
2021/12/27 05:06:59;;;;;;;48.53;24.83;;;;;;;;;;2105644;28;20064;-47
2021/12/27 05:08:00;;;;;;;51.83;24.50;;;;;;;;;;2097976;28;20120;-47
2021/12/27 05:09:01;;;;;;;49.28;24.83;;;;;;;;;;2097919;28;20041;-47
2021/12/27 05:10:03;;;;;;;45.00;24.98;;;;;;;;;;2103879;28;20470;-48
2021/12/27 05:11:04;;;;;;;58.65;28.10;;;;;;;;;;2106175;28;20143;-48
2021/12/27 05:12:06;;;;;;;41.83;23.33;;;;;;;;;;2105647;28;20288;-48
2021/12/27 05:13:07;;;;;;;55.75;27.98;;;;;;;;;;2104285;28;20043;-49
2021/12/27 05:14:08;;;;;;;58.05;27.45;;;;;;;;;;2106075;28;20135;-47
2021/12/27 05:15:10;;;;;;;58.22;27.15;;;;;;;;;;2105509;28;20050;-48
2021/12/27 05:16:10;;;;;;;53.58;27.90;;;;;;;;;;2107706;28;20044;-47
2021/12/27 05:17:12;;;;;;;54.88;26.92;;;;;;;;;;2114636;28;20043;-48
2021/12/27 05:18:15;;;;;;;48.33;26.65;;;;;;;;;;2109827;28;20039;-48
2021/12/27 05:19:16;;;;;;;50.20;26.43;;;;;;;;;;2101617;28;20299;-48
2021/12/27 05:20:17;;;;;;;54.95;25.48;;;;;;;;;;2097730;28;20047;-49
2021/12/27 05:21:18;;;;;;;51.60;25.97;;;;;;;;;;2099071;28;20317;-47
2021/12/27 05:22:19;;;;;;;52.40;26.33;;;;;;;;;;2111630;28;20051;-47
2021/12/27 05:23:20;;;;;;;57.60;26.47;;;;;;;;;;2114508;28;20393;-48
2021/12/27 05:24:22;;;;;;;54.97;27.42;;;;;;;;;;2109567;28;20135;-48
2021/12/27 05:25:24;;;;;;;51.78;24.73;;;;;;;;;;2104573;28;20234;-47
2021/12/27 05:26:25;;;;;;;48.80;26.45;;;;;;;;;;2106136;28;20048;-47
2021/12/27 05:27:26;;;;;;;45.38;25.30;;;;;;;;;;2103719;28;20421;-47
2021/12/27 05:28:46;;;;;;;45.10;22.58;;;;;;;;;;2103286;28;20464;-48
2021/12/27 05:29:47;;;;;;;42.65;22.33;;;;;;;;;;2106125;28;20052;-48
2021/12/27 05:30:51;;;;;;;41.80;23.60;;;;;;;;;;2104569;28;20412;-48
2021/12/27 05:31:52;;;;;;;41.10;21.58;;;;;;;;;;2096357;28;20052;-47
2021/12/27 05:32:53;;;;;;;50.87;25.50;;;;;;;;;;2098147;28;20049;-48
2021/12/27 05:33:54;;;;;;;51.88;25.27;;;;;;;;;;2106336;28;20330;-48
2021/12/27 05:34:55;;;;;;;55.50;28.03;;;;;;;;;;2114549;28;20100;-50
2021/12/27 05:35:56;;;;;;;46.58;24.40;;;;;;;;;;2112069;28;20056;-48
2021/12/27 05:36:58;;;;;;;39.23;22.10;;;;;;;;;;2104512;28;20089;-47
2021/12/27 05:37:59;;;;;;;50.13;26.92;;;;;;;;;;2097793;28;20101;-48
2021/12/27 05:39:00;;;;;;;52.27;25.17;;;;;;;;;;2098560;28;20425;-45
2021/12/27 05:40:05;;;;;;;56.03;27.25;;;;;;;;;;2108413;28;20044;-44
2021/12/27 05:41:07;;;;;;;54.42;25.65;;;;;;;;;;2114392;28;20071;-44
2021/12/27 05:42:08;;;;;;;50.88;27.23;;;;;;;;;;2109402;28;20565;-45
2021/12/27 05:43:09;;;;;;;50.53;26.37;;;;;;;;;;2104582;28;20044;-44
2021/12/27 05:44:10;;;;;;;52.50;26.00;;;;;;;;;;2106061;28;20127;-45
2021/12/27 05:45:11;;;;;;;47.20;25.13;;;;;;;;;;2103794;28;20040;-44
2021/12/27 05:46:12;;;;;;;53.60;27.23;;;;;;;;;;2112790;28;20089;-45
2021/12/27 05:47:13;;;;;;;61.53;31.57;;;;;;;;;;2114513;28;20044;-45
2021/12/27 05:48:15;;;;;;;64.32;33.45;;;;;;;;;;2107348;28;24568;-44
2021/12/27 05:49:16;;;;;;;;;;;;;;;;;;2105784;28;20166;-45
2021/12/27 05:50:17;;;;;;;50.63;25.15;;;;;;;;;;2105801;28;19920;-46
2021/12/27 05:51:18;;;;;;;44.45;23.15;;;;;;;;;;2103549;28;20051;-44
2021/12/27 05:52:19;;;;;;;50.40;26.27;;;;;;;;;;2105871;28;20127;-45
2021/12/27 05:53:20;;;;;;;51.00;26.15;;;;;;;;;;2106054;28;20048;-45
2021/12/27 05:54:22;;;;;;;41.53;21.60;;;;;;;;;;2106699;28;20063;-45
2021/12/27 05:55:23;;;;;;;58.03;29.20;;;;;;;;;;2097446;28;20189;-44
2021/12/27 05:56:25;;;;;;;51.30;27.88;;;;;;;;;;2097468;28;20056;-44
2021/12/27 05:57:26;;;;;;;54.72;26.20;;;;;;;;;;2102825;28;20127;-45
2021/12/27 05:58:27;;;;;;;49.50;26.45;;;;;;;;;;2105945;28;20097;-44
2021/12/27 05:59:28;;;;;;;55.90;27.33;;;;;;;;;;2105780;28;20048;-46
2021/12/27 06:00:30;;;;;;;51.53;25.25;;;;;;;;;;2102701;28;20117;-44
2021/12/27 06:01:31;;;;;;;94.82;46.83;;;;;;;;;;2105834;28;20251;-45